createdAt,value
2019-05-17T00:01:38.609Z,71.13
2019-05-17T00:04:10.472Z,71.21
2019-05-17T00:06:43.162Z,71.43
2019-05-17T00:09:14.879Z,71.70
2019-05-17T00:11:47.301Z,71.76
2019-05-17T00:14:20.165Z,71.74
2019-05-17T00:16:51.927Z,72.10
2019-05-17T00:19:26.178Z,72.24
2019-05-17T00:21:57.484Z,72.34
2019-05-17T00:24:29.347Z,72.34
2019-05-17T00:27:01.214Z,72.62
2019-05-17T00:29:33.067Z,72.65
2019-05-17T00:32:06.396Z,72.89
2019-05-17T00:34:38.217Z,72.99
2019-05-17T00:37:10.098Z,73.16
2019-05-17T00:39:42.039Z,73.39
2019-05-17T00:42:13.752Z,73.36
2019-05-17T00:44:47.409Z,73.57
2019-05-17T00:47:18.956Z,73.62
2019-05-17T00:49:50.606Z,73.98
2019-05-17T00:52:22.468Z,73.79
2019-05-17T00:54:56.278Z,73.92
2019-05-17T00:57:27.514Z,74.00
2019-05-17T00:59:59.483Z,74.10
2019-05-17T01:02:31.117Z,74.23
2019-05-17T01:05:03.215Z,74.39
2019-05-17T01:07:37.409Z,74.52
2019-05-17T01:10:09.279Z,74.62
2019-05-17T01:12:40.875Z,74.62
2019-05-17T01:15:13.447Z,74.84
2019-05-17T01:17:47.149Z,74.87
2019-05-17T01:20:18.317Z,74.93
2019-05-17T01:22:49.944Z,75.00
2019-05-17T01:25:21.970Z,75.13
2019-05-17T01:27:53.829Z,75.08
2019-05-17T01:30:26.643Z,75.03
2019-05-17T01:32:58.400Z,75.02
2019-05-17T01:35:30.232Z,75.01
2019-05-17T01:38:02.188Z,75.13
2019-05-17T01:40:33.748Z,75.26
2019-05-17T01:43:07.826Z,75.38
2019-05-17T01:45:39.735Z,75.46
2019-05-17T01:48:11.678Z,75.60
2019-05-17T01:50:43.539Z,75.52
2019-05-17T01:53:16.639Z,75.88
2019-05-17T01:55:48.387Z,75.99
2019-05-17T01:58:20.142Z,76.07
2019-05-17T02:00:52.772Z,76.15
2019-05-17T02:03:26.631Z,76.10
2019-05-17T02:05:57.671Z,76.21
2019-05-17T02:08:29.832Z,76.19
2019-05-17T02:11:01.635Z,76.31
2019-05-17T02:13:33.101Z,76.38
2019-05-17T02:16:07.000Z,76.56
2019-05-17T02:18:38.394Z,76.44
2019-05-17T02:21:10.405Z,76.35
2019-05-17T02:23:42.135Z,76.42
2019-05-17T02:26:14.176Z,76.34
2019-05-17T02:28:46.144Z,76.52
2019-05-17T02:31:17.800Z,76.63
2019-05-17T02:33:49.880Z,76.61
2019-05-17T02:36:22.848Z,76.75
2019-05-17T02:38:54.567Z,76.88
2019-05-17T02:41:26.289Z,76.79
2019-05-17T02:43:58.131Z,76.64
2019-05-17T02:46:29.791Z,76.47
2019-05-17T02:49:03.047Z,76.67
2019-05-17T02:51:34.537Z,76.67
2019-05-17T02:54:06.175Z,76.82
2019-05-17T02:56:38.209Z,76.75
2019-05-17T02:59:13.371Z,77.20
2019-05-17T03:01:44.499Z,76.69
2019-05-17T03:04:16.278Z,76.72
2019-05-17T03:06:47.895Z,76.81
2019-05-17T03:09:22.641Z,76.45
2019-05-17T03:11:56.959Z,76.63
2019-05-17T03:14:26.691Z,76.58
2019-05-17T03:16:58.410Z,76.61
2019-05-17T03:19:32.798Z,76.50
2019-05-17T03:22:07.852Z,76.46
2019-05-17T03:24:38.342Z,76.24
2019-05-17T03:27:13.492Z,76.10
2019-05-17T03:29:43.688Z,76.22
2019-05-17T03:32:17.572Z,75.92
2019-05-17T03:34:55.888Z,76.03
2019-05-17T03:37:29.957Z,76.28
2019-05-17T03:39:57.677Z,75.99
2019-05-17T03:42:29.649Z,75.35
2019-05-17T03:45:02.889Z,75.15
2019-05-17T03:47:35.021Z,75.26
2019-05-17T03:50:07.077Z,75.10
2019-05-17T03:52:38.513Z,75.52
2019-05-17T03:55:13.190Z,75.53
2019-05-17T03:57:45.038Z,74.79
2019-05-17T04:00:18.084Z,74.71
2019-05-17T04:02:49.639Z,74.90
2019-05-17T04:05:22.717Z,75.19
2019-05-17T04:07:54.699Z,74.83
2019-05-17T04:10:26.676Z,74.59
2019-05-17T04:12:58.533Z,74.56
2019-05-17T04:15:32.901Z,74.10
2019-05-17T04:18:04.544Z,74.29
2019-05-17T04:20:37.267Z,74.20
2019-05-17T04:23:09.026Z,74.11
2019-05-17T04:25:43.491Z,74.30
2019-05-17T04:28:14.189Z,73.71
2019-05-17T04:30:47.083Z,73.66
2019-05-17T04:33:18.524Z,73.74
2019-05-17T04:35:49.991Z,73.81
2019-05-17T04:38:23.581Z,73.65
2019-05-17T04:40:55.016Z,73.78
2019-05-17T04:43:26.797Z,74.01
2019-05-17T04:45:58.429Z,73.89
2019-05-17T04:48:32.647Z,74.03
2019-05-17T04:51:03.322Z,74.11
2019-05-17T04:53:34.966Z,73.91
2019-05-17T04:56:06.893Z,73.66
2019-05-17T04:58:38.545Z,73.31
2019-05-17T05:01:12.977Z,73.10
2019-05-17T05:03:43.668Z,73.33
2019-05-17T05:06:15.255Z,73.12
2019-05-17T05:08:46.940Z,73.09
2019-05-17T05:11:18.767Z,72.83
2019-05-17T05:13:53.133Z,72.67
2019-05-17T05:16:24.439Z,73.10
2019-05-17T05:18:56.293Z,72.53
2019-05-17T05:21:32.358Z,72.75
2019-05-17T05:24:04.118Z,73.11
2019-05-17T05:26:36.072Z,72.78
2019-05-17T05:29:07.735Z,72.18
2019-05-17T05:31:39.694Z,72.21
2019-05-17T05:34:12.342Z,72.15
2019-05-17T05:36:43.909Z,72.10
2019-05-17T05:39:15.374Z,71.95
2019-05-17T05:41:47.335Z,71.96
2019-05-17T05:44:21.426Z,72.04
2019-05-17T05:46:52.796Z,71.90
2019-05-17T05:49:25.531Z,72.16
2019-05-17T05:51:57.737Z,72.03
2019-05-17T05:54:29.206Z,72.11
2019-05-17T05:57:02.327Z,71.71
2019-05-17T05:59:35.510Z,71.47
2019-05-17T06:02:07.159Z,71.92
2019-05-17T06:04:39.091Z,70.83
2019-05-17T06:07:12.910Z,70.90
2019-05-17T06:09:44.493Z,70.66
2019-05-17T06:12:23.791Z,70.68
2019-05-17T06:14:49.396Z,70.79
2019-05-17T06:17:21.619Z,71.20
2019-05-17T06:19:53.344Z,70.86
2019-05-17T06:22:24.773Z,70.07
2019-05-17T06:24:56.530Z,70.66
2019-05-17T06:27:28.494Z,69.32
2019-05-17T06:30:01.469Z,68.19
2019-05-17T06:32:33.235Z,67.97
2019-05-17T06:35:05.554Z,68.56
2019-05-17T06:37:37.158Z,68.28
2019-05-17T06:40:09.427Z,68.57
2019-05-17T06:42:44.980Z,67.77
2019-05-17T06:45:15.197Z,68.34
2019-05-17T06:47:47.067Z,68.39
2019-05-17T06:50:18.814Z,68.62
2019-05-17T06:52:53.112Z,68.43
2019-05-17T06:55:24.371Z,67.94
2019-05-17T06:57:55.932Z,67.59
2019-05-17T07:00:29.886Z,66.71
2019-05-17T07:03:01.935Z,66.26
2019-05-17T07:05:35.418Z,66.00
2019-05-17T07:08:06.849Z,64.90
2019-05-17T07:10:40.022Z,64.98
2019-05-17T07:13:11.826Z,64.60
2019-05-17T07:15:47.610Z,64.29
2019-05-17T07:18:19.280Z,63.97
2019-05-17T07:20:50.388Z,64.72
2019-05-17T07:23:22.022Z,63.86
2019-05-17T07:25:53.717Z,63.57
2019-05-17T07:28:25.518Z,62.69
2019-05-17T07:30:59.465Z,61.58
2019-05-17T07:33:30.732Z,61.04
2019-05-17T07:36:02.692Z,61.49
2019-05-17T07:38:34.032Z,61.56
2019-05-17T07:41:05.549Z,61.32
2019-05-17T07:43:37.395Z,61.11
2019-05-17T07:46:09.676Z,60.71
2019-05-17T07:48:41.341Z,60.38
2019-05-17T07:51:13.285Z,60.64
2019-05-17T07:53:45.349Z,60.78
2019-05-17T07:56:17.037Z,60.42
2019-05-17T07:58:49.492Z,60.36
2019-05-17T08:01:23.182Z,60.23
2019-05-17T08:03:55.200Z,59.67
2019-05-17T08:06:26.904Z,59.59
2019-05-17T08:09:03.945Z,58.47
2019-05-17T08:11:32.068Z,58.07
2019-05-17T08:14:03.918Z,58.34
2019-05-17T08:16:35.782Z,59.14
2019-05-17T08:19:09.597Z,58.92
2019-05-17T08:21:40.886Z,57.80
2019-05-17T08:24:13.405Z,58.02
2019-05-17T08:26:45.262Z,57.71
2019-05-17T08:29:16.979Z,56.98
2019-05-17T08:31:49.727Z,57.46
2019-05-17T08:34:21.254Z,56.86
2019-05-17T08:36:53.007Z,56.21
2019-05-17T08:39:24.681Z,55.34
2019-05-17T08:41:56.429Z,54.94
2019-05-17T08:44:29.887Z,56.71
2019-05-17T08:47:01.470Z,56.31
2019-05-17T08:49:33.537Z,55.88
2019-05-17T08:52:05.283Z,55.04
2019-05-17T08:54:40.533Z,53.36
2019-05-17T08:57:10.388Z,52.84
2019-05-17T08:59:41.914Z,53.24
2019-05-17T09:02:13.864Z,52.25
2019-05-17T09:04:45.724Z,53.67
2019-05-17T09:07:20.196Z,53.81
2019-05-17T09:09:51.196Z,52.81
2019-05-17T09:12:22.940Z,53.03
2019-05-17T09:14:54.492Z,52.32
2019-05-17T09:17:26.250Z,51.29
2019-05-17T09:20:00.463Z,52.56
2019-05-17T09:22:31.610Z,53.39
2019-05-17T09:25:03.505Z,52.08
2019-05-17T09:27:35.026Z,52.10
2019-05-17T09:30:09.462Z,51.02
2019-05-17T09:32:41.089Z,51.48
2019-05-17T09:35:13.059Z,51.22
2019-05-17T09:37:45.015Z,51.06
2019-05-17T09:40:16.985Z,51.65
2019-05-17T09:42:49.952Z,48.87
2019-05-17T09:45:21.826Z,49.82
2019-05-17T09:47:53.585Z,49.32
2019-05-17T09:50:25.298Z,49.69
2019-05-17T09:52:57.125Z,49.82
2019-05-17T09:55:30.069Z,49.98
2019-05-17T09:58:01.634Z,48.07
2019-05-17T10:00:33.965Z,49.53
2019-05-17T10:03:05.617Z,48.30
2019-05-17T10:05:40.305Z,50.48
2019-05-17T10:08:11.181Z,48.40
2019-05-17T10:10:43.088Z,49.00
2019-05-17T10:13:14.855Z,48.64
2019-05-17T10:15:46.809Z,49.32
2019-05-17T10:18:20.040Z,49.04
2019-05-17T10:20:51.548Z,49.15
2019-05-17T10:23:23.132Z,48.99
2019-05-17T10:25:54.967Z,48.81
2019-05-17T10:28:26.621Z,48.65
2019-05-17T10:31:02.061Z,48.92
2019-05-17T10:33:31.367Z,49.72
2019-05-17T10:36:03.123Z,50.76
2019-05-17T10:38:34.888Z,49.99
2019-05-17T10:41:06.588Z,49.47
2019-05-17T10:43:39.245Z,49.60
2019-05-17T10:46:10.876Z,49.31
2019-05-17T10:48:42.627Z,47.82
2019-05-17T10:51:14.399Z,47.48
2019-05-17T10:53:46.148Z,48.00
2019-05-17T10:56:19.930Z,48.62
2019-05-17T10:58:51.036Z,47.65
2019-05-17T11:01:22.749Z,48.09
2019-05-17T11:03:54.408Z,45.49
2019-05-17T11:06:25.849Z,45.47
2019-05-17T11:08:59.511Z,45.56
2019-05-17T11:11:30.696Z,46.37
2019-05-17T11:14:02.565Z,46.95
2019-05-17T11:16:33.952Z,48.81
2019-05-17T11:19:08.652Z,46.98
2019-05-17T11:21:38.855Z,46.57
2019-05-17T11:24:10.405Z,45.57
2019-05-17T11:26:41.792Z,45.50
2019-05-17T11:29:13.517Z,45.58
2019-05-17T11:31:45.169Z,46.01
2019-05-17T11:34:17.095Z,46.71
2019-05-17T11:36:49.027Z,47.44
2019-05-17T11:39:20.851Z,48.34
2019-05-17T11:41:52.520Z,48.55
2019-05-17T11:44:24.429Z,48.07
2019-05-17T11:46:56.045Z,47.35
2019-05-17T11:49:27.896Z,48.42
2019-05-17T11:51:59.844Z,47.02
2019-05-17T11:54:31.401Z,47.13
2019-05-17T11:57:03.263Z,46.22
2019-05-17T11:59:35.059Z,45.38
2019-05-17T12:02:07.607Z,46.32
2019-05-17T12:04:39.157Z,45.54
2019-05-17T12:07:10.558Z,46.34
2019-05-17T12:09:43.399Z,47.05
2019-05-17T12:12:15.077Z,48.04
2019-05-17T12:14:46.920Z,47.02
2019-05-17T12:17:18.337Z,47.28
2019-05-17T12:19:50.303Z,45.97
2019-05-17T12:22:22.083Z,47.11
2019-05-17T12:24:53.637Z,45.96
2019-05-17T12:27:25.317Z,45.63
2019-05-17T12:29:57.174Z,46.24
2019-05-17T12:32:28.678Z,46.60
2019-05-17T12:35:00.562Z,46.09
2019-05-17T12:37:32.428Z,45.60
2019-05-17T12:40:05.376Z,45.66
2019-05-17T12:42:36.838Z,45.54
2019-05-17T12:45:09.244Z,45.57
2019-05-17T12:47:40.721Z,44.75
2019-05-17T12:50:12.847Z,45.62
2019-05-17T12:52:44.379Z,45.31
2019-05-17T12:55:16.449Z,45.40
2019-05-17T12:57:48.325Z,45.25
2019-05-17T13:00:20.597Z,45.51
2019-05-17T13:02:52.090Z,47.10
2019-05-17T13:05:23.594Z,45.74
2019-05-17T13:07:55.342Z,45.02
2019-05-17T13:10:26.906Z,44.76
2019-05-17T13:12:58.645Z,45.15
2019-05-17T13:15:30.140Z,45.63
2019-05-17T13:18:01.756Z,45.72
2019-05-17T13:20:33.398Z,45.24
2019-05-17T13:23:05.290Z,44.82
2019-05-17T13:25:36.756Z,45.70
2019-05-17T13:28:08.397Z,46.03
2019-05-17T13:30:40.347Z,46.67
2019-05-17T13:33:12.006Z,46.20
2019-05-17T13:35:43.924Z,46.78
2019-05-17T13:38:15.588Z,46.65
2019-05-17T13:40:47.269Z,46.11
2019-05-17T13:43:18.949Z,46.26
2019-05-17T13:45:50.697Z,45.84
2019-05-17T13:48:22.230Z,47.75
2019-05-17T13:50:53.928Z,47.77
2019-05-17T13:53:25.611Z,46.17
2019-05-17T13:55:57.513Z,46.57
2019-05-17T13:58:29.076Z,46.79
2019-05-17T14:01:01.283Z,47.04
2019-05-17T14:03:34.429Z,47.65
2019-05-17T14:06:06.094Z,47.07
2019-05-17T14:08:37.823Z,47.81
2019-05-17T14:11:09.433Z,47.02
2019-05-17T14:13:42.463Z,47.55
2019-05-17T14:16:14.428Z,46.45
2019-05-17T14:18:46.418Z,46.13
2019-05-17T14:21:18.172Z,46.46
2019-05-17T14:23:49.903Z,46.87
2019-05-17T14:26:21.421Z,47.50
2019-05-17T14:28:53.193Z,46.88
2019-05-17T14:31:25.051Z,46.75
2019-05-17T14:33:56.937Z,46.77
2019-05-17T14:36:30.236Z,47.32
2019-05-17T14:39:02.333Z,48.38
2019-05-17T14:41:35.608Z,47.44
2019-05-17T14:44:07.042Z,47.60
2019-05-17T14:46:38.899Z,47.00
2019-05-17T14:49:10.764Z,47.13
2019-05-17T14:51:42.326Z,47.09
2019-05-17T14:54:14.063Z,47.51
2019-05-17T14:56:45.814Z,48.18
2019-05-17T14:59:17.705Z,48.13
2019-05-17T15:01:49.944Z,47.77
2019-05-17T15:04:21.813Z,48.04
2019-05-17T15:06:53.851Z,47.88
2019-05-17T15:09:25.332Z,48.56
2019-05-17T15:11:58.585Z,49.19
2019-05-17T15:14:30.103Z,48.28
2019-05-17T15:17:03.095Z,47.79
2019-05-17T15:19:35.431Z,48.12
2019-05-17T15:22:07.208Z,48.59
2019-05-17T15:24:39.159Z,48.39
2019-05-17T15:27:10.631Z,48.24
2019-05-17T15:29:42.463Z,48.35
2019-05-17T15:32:14.141Z,48.53
2019-05-17T15:34:45.913Z,49.09
2019-05-17T15:37:17.534Z,48.92
2019-05-17T15:39:48.981Z,49.65
2019-05-17T15:42:20.658Z,49.51
2019-05-17T15:44:52.390Z,50.12
2019-05-17T15:47:24.418Z,49.39
2019-05-17T15:49:56.418Z,49.11
2019-05-17T15:52:28.187Z,49.40
2019-05-17T15:54:59.829Z,50.39
2019-05-17T15:57:31.521Z,50.32
2019-05-17T16:00:03.650Z,49.53
2019-05-17T16:02:36.539Z,49.65
2019-05-17T16:05:08.993Z,49.67
2019-05-17T16:07:40.476Z,49.14
2019-05-17T16:10:13.187Z,50.12
2019-05-17T16:13:00.852Z,50.01
2019-05-17T16:15:18.243Z,50.03
2019-05-17T16:17:50.015Z,50.08
2019-05-17T16:20:22.751Z,50.07
2019-05-17T16:22:55.036Z,50.84
2019-05-17T16:25:26.792Z,50.58
2019-05-17T16:27:58.724Z,50.78
2019-05-17T16:30:30.192Z,50.59
2019-05-17T16:33:01.953Z,50.97
2019-05-17T16:35:33.488Z,51.46
2019-05-17T16:38:05.241Z,51.61
2019-05-17T16:40:37.148Z,51.47
2019-05-17T16:43:17.778Z,51.73
2019-05-17T16:45:42.255Z,51.74
2019-05-17T16:48:14.117Z,51.60
2019-05-17T16:50:46.065Z,51.63
2019-05-17T16:53:18.348Z,51.27
2019-05-17T16:55:50.006Z,51.66
2019-05-17T16:58:22.707Z,52.07
2019-05-17T17:00:54.342Z,52.03
2019-05-17T17:03:34.815Z,52.45
2019-05-17T17:06:00.145Z,52.41
2019-05-17T17:08:32.372Z,52.45
2019-05-17T17:11:03.861Z,52.28
2019-05-17T17:13:35.595Z,52.67
2019-05-17T17:16:07.349Z,52.34
2019-05-17T17:18:38.902Z,52.35
2019-05-17T17:21:10.555Z,52.87
2019-05-17T17:23:42.366Z,52.88
2019-05-17T17:26:14.034Z,53.25
2019-05-17T17:28:45.515Z,53.34
2019-05-17T17:31:17.428Z,53.27
2019-05-17T17:33:49.176Z,53.35
2019-05-17T17:36:20.900Z,53.89
2019-05-17T17:38:52.958Z,53.83
2019-05-17T17:41:26.630Z,53.81
2019-05-17T17:43:59.303Z,54.07
2019-05-17T17:46:31.048Z,54.12
2019-05-17T17:49:02.998Z,54.35
2019-05-17T17:51:34.649Z,54.60
2019-05-17T17:54:06.980Z,54.52
2019-05-17T17:56:38.839Z,54.86
2019-05-17T17:59:10.927Z,55.10
2019-05-17T18:01:42.791Z,55.20
2019-05-17T18:04:14.674Z,55.50
2019-05-17T18:06:46.394Z,55.59
2019-05-17T18:09:19.195Z,55.30
2019-05-17T18:11:50.822Z,55.88
2019-05-17T18:14:22.585Z,55.83
2019-05-17T18:16:54.033Z,55.99
2019-05-17T18:19:25.823Z,56.29
2019-05-17T18:21:57.564Z,56.22
2019-05-17T18:24:29.108Z,56.16
2019-05-17T18:27:01.087Z,56.67
2019-05-17T18:29:32.921Z,56.50
2019-05-17T18:32:04.878Z,57.02
2019-05-17T18:34:36.392Z,57.04
2019-05-17T18:37:08.245Z,57.01
2019-05-17T18:39:39.973Z,57.10
2019-05-17T18:42:11.404Z,57.38
2019-05-17T18:44:43.053Z,57.35
2019-05-17T18:47:14.734Z,57.34
2019-05-17T18:49:46.874Z,57.82
2019-05-17T18:52:18.735Z,57.97
2019-05-17T18:54:50.332Z,57.79
2019-05-17T18:57:22.044Z,58.42
2019-05-17T18:59:54.754Z,58.08
2019-05-17T19:02:26.591Z,58.34
2019-05-17T19:04:57.974Z,58.43
2019-05-17T19:07:29.503Z,58.48
2019-05-17T19:10:01.301Z,58.00
2019-05-17T19:12:33.000Z,58.42
2019-05-17T19:15:10.502Z,58.28
2019-05-17T19:17:42.045Z,58.26
2019-05-17T19:20:13.939Z,58.31
2019-05-17T19:22:45.534Z,58.32
2019-05-17T19:25:17.466Z,58.31
2019-05-17T19:27:49.008Z,58.90
2019-05-17T19:30:20.856Z,58.95
2019-05-17T19:32:53.614Z,59.12
2019-05-17T19:35:26.093Z,59.05
2019-05-17T19:37:57.811Z,59.09
2019-05-17T19:40:29.708Z,59.29
2019-05-17T19:43:01.464Z,59.50
2019-05-17T19:45:33.424Z,59.46
2019-05-17T19:48:05.115Z,59.38
2019-05-17T19:50:36.764Z,59.36
2019-05-17T19:53:08.632Z,59.29
2019-05-17T19:55:40.524Z,59.79
2019-05-17T19:58:12.114Z,59.86
2019-05-17T20:00:44.077Z,59.42
2019-05-17T20:03:15.727Z,59.37
2019-05-17T20:05:47.468Z,59.36
2019-05-17T20:08:19.350Z,59.38
2019-05-17T20:10:52.142Z,59.43
2019-05-17T20:13:23.663Z,59.47
2019-05-17T20:15:55.142Z,58.97
2019-05-17T20:18:26.710Z,59.23
2019-05-17T20:20:58.554Z,58.95
2019-05-17T20:23:30.514Z,59.22
2019-05-17T20:26:02.241Z,59.21
2019-05-17T20:28:33.847Z,59.11
2019-05-17T20:31:05.703Z,59.51
2019-05-17T20:33:37.353Z,59.56
2019-05-17T20:36:09.039Z,59.41
2019-05-17T20:38:40.866Z,59.72
2019-05-17T20:41:12.423Z,59.96
2019-05-17T20:43:44.064Z,60.00
2019-05-17T20:46:15.933Z,59.99
2019-05-17T20:48:47.423Z,59.81
2019-05-17T20:51:18.923Z,59.96
2019-05-17T20:53:50.801Z,60.19
2019-05-17T20:56:32.287Z,60.01
2019-05-17T20:58:56.557Z,59.82
2019-05-17T21:01:28.630Z,59.89
2019-05-17T21:04:00.679Z,60.06
2019-05-17T21:06:32.438Z,60.17
2019-05-17T21:09:05.317Z,60.47
2019-05-17T21:11:36.797Z,60.15
2019-05-17T21:14:08.523Z,60.21
2019-05-17T21:16:40.405Z,60.37
2019-05-17T21:19:11.958Z,60.45
2019-05-17T21:21:43.741Z,60.34
2019-05-17T21:24:15.557Z,60.67
2019-05-17T21:26:47.108Z,60.59
2019-05-17T21:29:18.886Z,60.24
2019-05-17T21:31:50.766Z,60.58
2019-05-17T21:34:22.304Z,60.63
2019-05-17T21:36:54.011Z,60.74
2019-05-17T21:39:25.450Z,61.19
2019-05-17T21:41:57.107Z,61.25
2019-05-17T21:44:28.908Z,61.43
2019-05-17T21:47:04.558Z,61.55
2019-05-17T21:49:33.860Z,61.16
2019-05-17T21:52:06.018Z,61.41
2019-05-17T21:54:37.776Z,61.45
2019-05-17T21:57:09.328Z,61.56
2019-05-17T21:59:41.079Z,61.38
2019-05-17T22:02:13.152Z,61.54
2019-05-17T22:04:45.116Z,61.32
2019-05-17T22:07:16.886Z,61.46
2019-05-17T22:09:48.620Z,61.33
2019-05-17T22:12:20.426Z,61.30
2019-05-17T22:14:52.034Z,61.88
2019-05-17T22:17:23.708Z,62.21
2019-05-17T22:19:55.477Z,61.93
2019-05-17T22:22:27.109Z,62.05
2019-05-17T22:24:58.963Z,62.12
2019-05-17T22:27:30.416Z,62.42
2019-05-17T22:30:02.094Z,62.12
2019-05-17T22:32:33.951Z,62.05
2019-05-17T22:35:06.724Z,62.04
2019-05-17T22:37:38.552Z,62.26
2019-05-17T22:40:10.043Z,62.01
2019-05-17T22:42:41.686Z,62.28
2019-05-17T22:45:13.874Z,62.49
2019-05-17T22:47:45.466Z,62.35
2019-05-17T22:50:17.166Z,62.40
2019-05-17T22:52:49.017Z,62.38
2019-05-17T22:55:20.789Z,62.35
2019-05-17T22:57:52.485Z,62.55
2019-05-17T23:00:24.315Z,63.17
2019-05-17T23:02:55.861Z,62.81
2019-05-17T23:05:27.598Z,62.85
2019-05-17T23:07:59.379Z,62.92
2019-05-17T23:10:34.894Z,62.85
2019-05-17T23:13:05.022Z,62.91
2019-05-17T23:15:38.105Z,63.09
2019-05-17T23:18:09.601Z,63.19
2019-05-17T23:20:41.109Z,63.21
2019-05-17T23:23:15.489Z,63.47
2019-05-17T23:25:46.372Z,63.82
2019-05-17T23:28:19.384Z,63.37
2019-05-17T23:30:51.226Z,63.44
2019-05-17T23:33:22.976Z,63.89
2019-05-17T23:35:54.732Z,63.78
2019-05-17T23:38:26.595Z,63.64
2019-05-17T23:40:58.477Z,63.65
2019-05-17T23:43:31.352Z,63.83
2019-05-17T23:46:03.110Z,63.52
2019-05-17T23:48:35.195Z,63.84
2019-05-17T23:51:06.615Z,63.77
2019-05-17T23:53:38.485Z,64.00
2019-05-17T23:56:10.237Z,63.91
2019-05-17T23:58:42.108Z,64.14
